createdAt,value
2022-07-27T00:00:13.073Z,7.12
2022-07-27T00:01:15.727Z,6.52
2022-07-27T00:02:18.508Z,7.87
2022-07-27T00:03:21.481Z,7.13
2022-07-27T00:04:24.346Z,5.61
2022-07-27T00:05:27.349Z,6.03
2022-07-27T00:06:30.120Z,5.97
2022-07-27T00:07:32.988Z,7.19
2022-07-27T00:08:36.791Z,7.44
2022-07-27T00:09:39.655Z,6.20
2022-07-27T00:10:42.632Z,7.12
2022-07-27T00:11:45.411Z,7.21
2022-07-27T00:12:48.492Z,9.22
2022-07-27T00:13:51.362Z,6.47
2022-07-27T00:14:54.242Z,7.15
2022-07-27T00:15:57.227Z,4.95
2022-07-27T00:16:59.786Z,5.45
2022-07-27T00:18:02.653Z,6.95
2022-07-27T00:19:08.990Z,5.44
2022-07-27T00:20:09.639Z,5.21
2022-07-27T00:21:12.299Z,5.56
2022-07-27T00:22:14.869Z,5.09
2022-07-27T00:23:18.055Z,6.53
2022-07-27T00:24:20.718Z,7.93
2022-07-27T00:25:23.616Z,6.06
2022-07-27T00:26:26.368Z,6.67
2022-07-27T00:27:29.244Z,5.09
2022-07-27T00:28:31.815Z,5.28
2022-07-27T00:29:34.488Z,8.27
2022-07-27T00:30:37.062Z,8.25
2022-07-27T00:31:40.076Z,6.48
2022-07-27T00:32:42.803Z,5.02
2022-07-27T00:33:45.567Z,5.36
2022-07-27T00:34:48.142Z,6.42
2022-07-27T00:35:50.915Z,5.21
2022-07-27T00:36:53.587Z,6.84
2022-07-27T00:37:56.160Z,8.02
2022-07-27T00:39:00.349Z,5.27
2022-07-27T00:40:02.924Z,4.22
2022-07-27T00:41:05.688Z,4.65
2022-07-27T00:42:08.361Z,4.99
2022-07-27T00:43:10.943Z,9.15
2022-07-27T00:44:13.801Z,9.83
2022-07-27T00:45:16.569Z,3.88
2022-07-27T00:46:19.405Z,5.15
2022-07-27T00:47:22.021Z,6.50
2022-07-27T00:48:24.786Z,7.22
2022-07-27T00:49:29.104Z,6.03
2022-07-27T00:50:31.768Z,4.44
2022-07-27T00:51:34.442Z,6.29
2022-07-27T00:52:37.110Z,6.18
2022-07-27T00:53:39.779Z,7.18
2022-07-27T00:54:42.454Z,5.79
2022-07-27T00:55:45.014Z,7.91
2022-07-27T00:56:47.893Z,4.91
2022-07-27T00:57:58.023Z,8.76
2022-07-27T00:58:55.074Z,6.43
2022-07-27T00:59:57.940Z,6.48
2022-07-27T01:01:00.612Z,8.30
2022-07-27T01:02:03.780Z,7.38
2022-07-27T01:03:09.015Z,7.32
2022-07-27T01:04:10.772Z,6.89
2022-07-27T01:05:13.648Z,5.99
2022-07-27T01:06:16.225Z,6.23
2022-07-27T01:07:18.999Z,5.39
2022-07-27T01:08:21.577Z,6.29
2022-07-27T01:09:24.326Z,6.86
2022-07-27T01:10:26.901Z,4.93
2022-07-27T01:11:29.574Z,3.55
2022-07-27T01:12:32.255Z,6.45
2022-07-27T01:13:34.803Z,9.00
2022-07-27T01:14:37.570Z,8.86
2022-07-27T01:15:40.467Z,7.60
2022-07-27T01:16:43.226Z,5.76
2022-07-27T01:17:45.904Z,7.06
2022-07-27T01:18:48.464Z,5.67
2022-07-27T01:19:51.032Z,5.73
2022-07-27T01:20:53.798Z,5.35
2022-07-27T01:21:56.583Z,8.17
2022-07-27T01:22:59.140Z,6.37
2022-07-27T01:24:01.712Z,8.16
2022-07-27T01:25:04.293Z,6.78
2022-07-27T01:26:07.152Z,10.82
2022-07-27T01:27:09.721Z,7.35
2022-07-27T01:28:12.391Z,6.53
2022-07-27T01:29:15.383Z,4.17
2022-07-27T01:30:18.241Z,6.75
2022-07-27T01:31:21.565Z,5.67
2022-07-27T01:32:24.304Z,5.96
2022-07-27T01:33:27.276Z,4.33
2022-07-27T01:34:30.049Z,5.75
2022-07-27T01:35:33.026Z,4.79
2022-07-27T01:36:35.807Z,5.50
2022-07-27T01:37:38.668Z,6.73
2022-07-27T01:38:43.278Z,19.69
2022-07-27T01:39:46.175Z,9.93
2022-07-27T01:40:49.031Z,11.78
2022-07-27T01:41:51.809Z,14.59
2022-07-27T01:42:54.582Z,6.46
2022-07-27T01:43:57.352Z,5.41
2022-07-27T01:45:00.023Z,5.60
2022-07-27T01:46:02.680Z,5.28
2022-07-27T01:47:14.457Z,5.30
2022-07-27T01:48:09.463Z,6.82
2022-07-27T01:49:12.678Z,6.87
2022-07-27T01:50:15.726Z,7.94
2022-07-27T01:51:18.391Z,5.88
2022-07-27T01:52:20.964Z,4.87
2022-07-27T01:53:23.643Z,5.41
2022-07-27T01:54:26.405Z,4.99
2022-07-27T01:55:30.318Z,7.06
2022-07-27T01:56:33.592Z,7.51
2022-07-27T01:57:36.929Z,6.95
2022-07-27T01:58:40.039Z,7.39
2022-07-27T01:59:43.731Z,6.32
2022-07-27T02:00:46.842Z,6.44
2022-07-27T02:01:49.812Z,5.84
2022-07-27T02:02:52.778Z,8.94
2022-07-27T02:03:55.762Z,4.22
2022-07-27T02:04:58.605Z,7.48
2022-07-27T02:06:01.511Z,6.56
2022-07-27T02:07:04.177Z,6.56
2022-07-27T02:08:06.957Z,16.52
2022-07-27T02:09:10.092Z,5.31
2022-07-27T02:10:13.119Z,8.06
2022-07-27T02:11:15.780Z,5.35
2022-07-27T02:12:18.847Z,6.83
2022-07-27T02:13:22.696Z,4.59
2022-07-27T02:14:26.049Z,6.13
2022-07-27T02:15:28.977Z,6.30
2022-07-27T02:16:33.400Z,6.08
2022-07-27T02:17:36.498Z,7.86
2022-07-27T02:18:39.378Z,8.15
2022-07-27T02:19:42.361Z,8.05
2022-07-27T02:20:45.737Z,6.35
2022-07-27T02:21:48.523Z,7.95
2022-07-27T02:22:51.181Z,6.20
2022-07-27T02:23:54.175Z,5.63
2022-07-27T02:24:56.931Z,5.42
2022-07-27T02:26:00.139Z,5.57
2022-07-27T02:27:02.789Z,5.36
2022-07-27T02:28:05.574Z,5.35
2022-07-27T02:29:08.597Z,5.18
2022-07-27T02:30:11.323Z,5.45
2022-07-27T02:31:14.186Z,6.22
2022-07-27T02:32:16.856Z,5.96
2022-07-27T02:33:19.808Z,7.72
2022-07-27T02:34:22.709Z,4.79
2022-07-27T02:35:25.382Z,5.17
2022-07-27T02:36:28.353Z,4.62
2022-07-27T02:37:31.239Z,6.08
2022-07-27T02:38:34.221Z,4.52
2022-07-27T02:39:37.081Z,4.99
2022-07-27T02:40:39.963Z,8.86
2022-07-27T02:41:42.835Z,5.36
2022-07-27T02:42:45.611Z,8.58
2022-07-27T02:43:48.590Z,9.23
2022-07-27T02:44:51.569Z,7.69
2022-07-27T02:45:54.529Z,6.65
2022-07-27T02:46:57.312Z,3.88
2022-07-27T02:47:59.881Z,4.53
2022-07-27T02:49:15.376Z,5.69
2022-07-27T02:50:18.833Z,5.11
2022-07-27T02:51:21.812Z,3.74
2022-07-27T02:52:25.091Z,5.34
2022-07-27T02:53:28.080Z,5.90
2022-07-27T02:54:31.056Z,6.68
2022-07-27T02:55:33.920Z,4.87
2022-07-27T02:56:36.805Z,6.26
2022-07-27T02:57:39.674Z,4.64
2022-07-27T02:58:42.658Z,5.65
2022-07-27T02:59:45.628Z,4.52
2022-07-27T03:00:48.415Z,4.62
2022-07-27T03:01:51.268Z,3.37
2022-07-27T03:02:54.256Z,5.76
2022-07-27T03:03:56.853Z,4.63
2022-07-27T03:04:59.479Z,5.41
2022-07-27T03:06:02.262Z,4.42
2022-07-27T03:07:04.929Z,5.70
2022-07-27T03:08:07.712Z,6.91
2022-07-27T03:09:10.950Z,4.99
2022-07-27T03:10:13.762Z,4.48
2022-07-27T03:11:16.532Z,5.08
2022-07-27T03:12:19.305Z,6.71
2022-07-27T03:13:21.969Z,6.28
2022-07-27T03:14:24.639Z,10.53
2022-07-27T03:15:27.682Z,10.33
2022-07-27T03:16:30.597Z,8.37
2022-07-27T03:17:33.369Z,12.25
2022-07-27T03:18:36.441Z,21.10
2022-07-27T03:19:39.223Z,10.35
2022-07-27T03:20:42.089Z,12.16
2022-07-27T03:21:45.167Z,13.62
2022-07-27T03:22:48.252Z,17.72
2022-07-27T03:23:51.237Z,26.52
2022-07-27T03:24:54.199Z,35.85
2022-07-27T03:25:57.081Z,15.68
2022-07-27T03:26:59.749Z,6.48
2022-07-27T03:28:04.425Z,4.11
2022-07-27T03:29:07.037Z,11.77
2022-07-27T03:30:09.926Z,13.55
2022-07-27T03:31:12.578Z,10.89
2022-07-27T03:32:15.150Z,6.59
2022-07-27T03:33:17.917Z,8.79
2022-07-27T03:34:20.888Z,4.86
2022-07-27T03:35:23.673Z,5.70
2022-07-27T03:36:26.444Z,7.63
2022-07-27T03:37:29.113Z,6.92
2022-07-27T03:38:31.887Z,4.35
2022-07-27T03:39:34.971Z,4.55
2022-07-27T03:40:37.545Z,4.92
2022-07-27T03:41:40.199Z,5.22
2022-07-27T03:42:42.968Z,4.43
2022-07-27T03:43:45.839Z,6.82
2022-07-27T03:44:49.150Z,5.20
2022-07-27T03:45:52.177Z,4.99
2022-07-27T03:46:54.881Z,6.27
2022-07-27T03:47:57.661Z,4.67
2022-07-27T03:49:00.261Z,5.01
2022-07-27T03:50:03.398Z,7.68
2022-07-27T03:51:06.169Z,8.40
2022-07-27T03:52:10.253Z,3.93
2022-07-27T03:53:13.050Z,3.80
2022-07-27T03:54:15.928Z,5.30
2022-07-27T03:55:18.799Z,4.82
2022-07-27T03:56:21.478Z,4.68
2022-07-27T03:57:24.245Z,5.88
2022-07-27T03:58:27.233Z,5.66
2022-07-27T03:59:29.789Z,4.88
2022-07-27T04:00:32.660Z,7.01
2022-07-27T04:01:35.435Z,6.65
2022-07-27T04:02:38.265Z,9.85
2022-07-27T04:03:44.452Z,4.08
2022-07-27T04:04:47.237Z,7.18
2022-07-27T04:05:52.673Z,7.77
2022-07-27T04:06:55.443Z,6.59
2022-07-27T04:07:58.208Z,4.17
2022-07-27T04:09:08.477Z,5.18
2022-07-27T04:10:07.977Z,6.95
2022-07-27T04:11:11.434Z,4.59
2022-07-27T04:12:16.643Z,5.38
2022-07-27T04:13:19.249Z,7.51
2022-07-27T04:14:22.330Z,6.56
2022-07-27T04:15:24.994Z,4.24
2022-07-27T04:16:35.646Z,5.22
2022-07-27T04:17:56.221Z,4.89
2022-07-27T04:18:38.730Z,3.69
2022-07-27T04:19:41.407Z,4.25
2022-07-27T04:20:44.172Z,7.01
2022-07-27T04:21:46.951Z,4.83
2022-07-27T04:22:49.840Z,4.05
2022-07-27T04:23:58.432Z,5.70
2022-07-27T04:25:01.413Z,5.61
2022-07-27T04:26:04.178Z,4.85
2022-07-27T04:27:07.161Z,5.39
2022-07-27T04:28:09.830Z,3.87
2022-07-27T04:29:15.698Z,4.52
2022-07-27T04:30:16.922Z,3.65
2022-07-27T04:31:19.784Z,3.74
2022-07-27T04:32:22.659Z,4.53
2022-07-27T04:33:25.344Z,6.07
2022-07-27T04:34:28.099Z,4.70
2022-07-27T04:35:30.769Z,4.32
2022-07-27T04:36:33.445Z,4.72
2022-07-27T04:37:36.112Z,7.43
2022-07-27T04:38:38.883Z,5.92
2022-07-27T04:39:44.426Z,7.14
2022-07-27T04:40:47.192Z,5.11
2022-07-27T04:41:52.844Z,6.53
2022-07-27T04:42:55.395Z,3.62
2022-07-27T04:43:57.965Z,5.95
2022-07-27T04:45:01.468Z,4.33
2022-07-27T04:46:04.609Z,4.22
2022-07-27T04:47:07.417Z,6.38
2022-07-27T04:48:10.289Z,6.54
2022-07-27T04:49:16.576Z,5.65
2022-07-27T04:50:19.608Z,7.42
2022-07-27T04:51:22.492Z,6.60
2022-07-27T04:52:26.718Z,5.52
2022-07-27T04:53:29.472Z,3.98
2022-07-27T04:54:32.144Z,4.23
2022-07-27T04:55:34.815Z,3.62
2022-07-27T04:56:40.550Z,3.86
2022-07-27T04:57:43.119Z,4.13
2022-07-27T04:58:46.277Z,4.88
2022-07-27T04:59:49.562Z,5.82
2022-07-27T05:00:53.479Z,4.73
2022-07-27T05:01:56.641Z,4.14
2022-07-27T05:03:02.279Z,4.56
2022-07-27T05:04:05.591Z,4.84
2022-07-27T05:05:08.448Z,3.93
2022-07-27T05:06:11.421Z,4.33
2022-07-27T05:07:17.058Z,4.45
2022-07-27T05:08:23.305Z,4.03
2022-07-27T05:09:27.003Z,4.55
2022-07-27T05:10:29.980Z,5.20
2022-07-27T05:11:33.069Z,3.41
2022-07-27T05:12:36.454Z,3.74
2022-07-27T05:13:39.637Z,4.03
2022-07-27T05:14:43.123Z,2.92
2022-07-27T05:15:54.246Z,3.24
2022-07-27T05:16:53.471Z,4.62
2022-07-27T05:17:56.449Z,4.93
2022-07-27T05:18:59.644Z,4.12
2022-07-27T05:20:03.125Z,5.02
2022-07-27T05:21:05.998Z,5.99
2022-07-27T05:22:09.295Z,3.66
2022-07-27T05:23:12.162Z,3.52
2022-07-27T05:24:15.232Z,4.04
2022-07-27T05:25:19.543Z,3.89
2022-07-27T05:26:22.723Z,5.25
2022-07-27T05:27:25.904Z,3.02
2022-07-27T05:28:29.089Z,4.85
2022-07-27T05:29:32.475Z,5.63
2022-07-27T05:30:35.970Z,8.87
2022-07-27T05:31:39.150Z,4.41
2022-07-27T05:32:42.028Z,3.37
2022-07-27T05:33:48.584Z,4.62
2022-07-27T05:34:49.529Z,6.87
2022-07-27T05:35:52.922Z,6.03
2022-07-27T05:36:56.287Z,6.22
2022-07-27T05:37:59.685Z,5.31
2022-07-27T05:39:02.360Z,5.31
2022-07-27T05:40:05.213Z,5.06
2022-07-27T05:41:11.267Z,6.23
2022-07-27T05:42:14.242Z,7.17
2022-07-27T05:43:17.220Z,4.65
2022-07-27T05:44:20.301Z,3.88
2022-07-27T05:45:23.523Z,7.91
2022-07-27T05:46:32.451Z,5.95
2022-07-27T05:47:31.482Z,3.80
2022-07-27T05:48:35.825Z,3.76
2022-07-27T05:49:39.073Z,3.60
2022-07-27T05:50:42.157Z,4.29
2022-07-27T05:51:45.747Z,3.62
2022-07-27T05:52:48.727Z,4.65
2022-07-27T05:53:52.115Z,3.65
2022-07-27T05:54:55.287Z,4.22
2022-07-27T05:56:00.728Z,3.55
2022-07-27T05:57:03.503Z,5.69
2022-07-27T05:58:06.169Z,7.64
2022-07-27T05:59:12.390Z,6.65
2022-07-27T06:00:15.602Z,5.98
2022-07-27T06:01:18.396Z,3.45
2022-07-27T06:02:22.068Z,3.95
2022-07-27T06:03:25.504Z,5.63
2022-07-27T06:04:28.428Z,4.38
2022-07-27T06:05:37.460Z,4.35
2022-07-27T06:06:40.538Z,6.04
2022-07-27T06:07:44.432Z,6.08
2022-07-27T06:08:48.839Z,5.70
2022-07-27T06:09:52.031Z,4.55
2022-07-27T06:10:55.105Z,4.24
2022-07-27T06:11:58.286Z,4.14
2022-07-27T06:13:01.473Z,4.42
2022-07-27T06:14:04.343Z,4.21
2022-07-27T06:15:07.416Z,5.50
2022-07-27T06:16:10.838Z,5.04
2022-07-27T06:17:13.701Z,4.14
2022-07-27T06:18:16.774Z,3.62
2022-07-27T06:19:19.540Z,5.82
2022-07-27T06:20:22.312Z,5.99
2022-07-27T06:21:25.280Z,4.82
2022-07-27T06:22:28.476Z,6.89
2022-07-27T06:23:31.881Z,6.15
2022-07-27T06:24:34.930Z,6.58
2022-07-27T06:25:38.211Z,11.32
2022-07-27T06:26:41.391Z,7.72
2022-07-27T06:27:44.061Z,9.47
2022-07-27T06:28:47.139Z,5.36
2022-07-27T06:29:50.221Z,6.01
2022-07-27T06:30:55.865Z,6.08
2022-07-27T06:31:59.312Z,4.96
2022-07-27T06:33:02.738Z,5.46
2022-07-27T06:34:11.832Z,7.08
2022-07-27T06:35:09.920Z,5.05
2022-07-27T06:36:15.564Z,6.60
2022-07-27T06:37:18.717Z,6.64
2022-07-27T06:38:22.649Z,6.35
2022-07-27T06:39:26.436Z,8.99
2022-07-27T06:40:30.214Z,6.35
2022-07-27T06:41:33.217Z,6.41
2022-07-27T06:42:36.190Z,6.03
2022-07-27T06:43:39.267Z,10.04
2022-07-27T06:44:42.545Z,9.24
2022-07-27T06:45:45.428Z,9.11
2022-07-27T06:46:48.466Z,11.96
2022-07-27T06:47:51.395Z,11.47
2022-07-27T06:48:57.104Z,10.12
2022-07-27T06:50:00.400Z,7.59
2022-07-27T06:51:03.382Z,8.58
2022-07-27T06:52:06.564Z,6.55
2022-07-27T06:53:09.336Z,10.07
2022-07-27T06:54:12.215Z,9.35
2022-07-27T06:55:15.193Z,8.21
2022-07-27T06:56:18.064Z,8.53
2022-07-27T06:57:21.251Z,6.64
2022-07-27T06:58:27.387Z,6.78
2022-07-27T06:59:43.199Z,9.56
2022-07-27T07:00:35.161Z,7.15
2022-07-27T07:01:38.064Z,7.04
2022-07-27T07:02:41.352Z,8.78
2022-07-27T07:03:44.406Z,7.58
2022-07-27T07:04:47.301Z,7.98
2022-07-27T07:05:50.496Z,9.22
2022-07-27T07:06:53.562Z,9.27
2022-07-27T07:07:56.553Z,8.57
2022-07-27T07:08:59.728Z,7.77
2022-07-27T07:10:02.735Z,7.62
2022-07-27T07:11:05.702Z,7.78
2022-07-27T07:12:08.666Z,7.88
2022-07-27T07:13:11.347Z,8.42
2022-07-27T07:14:14.501Z,11.35
2022-07-27T07:15:17.386Z,17.46
2022-07-27T07:16:23.209Z,7.24
2022-07-27T07:17:26.204Z,8.46
2022-07-27T07:18:29.190Z,8.61
2022-07-27T07:19:38.504Z,7.42
2022-07-27T07:20:41.477Z,8.82
2022-07-27T07:21:44.767Z,9.38
2022-07-27T07:22:47.743Z,6.10
2022-07-27T07:23:50.830Z,8.25
2022-07-27T07:24:55.430Z,7.59
2022-07-27T07:25:58.825Z,10.13
2022-07-27T07:27:02.104Z,10.91
2022-07-27T07:28:05.096Z,7.71
2022-07-27T07:29:07.969Z,10.10
2022-07-27T07:30:10.729Z,7.75
2022-07-27T07:31:13.566Z,7.15
2022-07-27T07:32:16.476Z,8.45
2022-07-27T07:33:22.034Z,8.11
2022-07-27T07:34:24.801Z,8.95
2022-07-27T07:35:27.457Z,11.42
2022-07-27T07:36:33.204Z,8.82
2022-07-27T07:37:36.083Z,9.51
2022-07-27T07:38:39.161Z,9.97
2022-07-27T07:39:42.029Z,8.49
2022-07-27T07:40:45.412Z,7.05
2022-07-27T07:41:48.498Z,6.76
2022-07-27T07:42:51.785Z,7.33
2022-07-27T07:43:54.967Z,6.36
2022-07-27T07:44:57.959Z,10.38
2022-07-27T07:46:00.709Z,12.73
2022-07-27T07:47:03.474Z,7.50
2022-07-27T07:48:06.462Z,8.32
2022-07-27T07:49:10.079Z,8.78
2022-07-27T07:50:12.934Z,10.12
2022-07-27T07:51:15.811Z,9.82
2022-07-27T07:52:18.984Z,8.88
2022-07-27T07:53:21.971Z,8.04
2022-07-27T07:54:25.039Z,8.89
2022-07-27T07:55:27.824Z,7.42
2022-07-27T07:56:31.321Z,16.81
2022-07-27T07:57:34.294Z,49.12
2022-07-27T07:58:37.163Z,10.59
2022-07-27T07:59:40.233Z,12.73
2022-07-27T08:00:43.105Z,9.71
2022-07-27T08:01:45.941Z,7.77
2022-07-27T08:02:48.816Z,9.25
2022-07-27T08:03:51.839Z,10.19
2022-07-27T08:04:54.603Z,8.57
2022-07-27T08:05:57.582Z,9.93
2022-07-27T08:07:00.455Z,7.94
2022-07-27T08:08:03.334Z,8.02
2022-07-27T08:09:06.312Z,9.24
2022-07-27T08:10:09.182Z,10.55
2022-07-27T08:11:12.056Z,10.38
2022-07-27T08:12:15.339Z,9.16
2022-07-27T08:13:21.894Z,10.58
2022-07-27T08:14:22.736Z,10.60
2022-07-27T08:15:29.875Z,10.62
2022-07-27T08:16:30.080Z,11.11
2022-07-27T08:17:33.092Z,10.12
2022-07-27T08:18:35.966Z,9.02
2022-07-27T08:19:40.344Z,9.01
2022-07-27T08:20:43.460Z,9.50
2022-07-27T08:21:46.343Z,8.47
2022-07-27T08:22:49.312Z,7.25
2022-07-27T08:23:52.285Z,12.22
2022-07-27T08:24:55.669Z,9.93
2022-07-27T08:26:00.045Z,9.95
2022-07-27T08:27:02.863Z,11.06
2022-07-27T08:28:05.808Z,10.94
2022-07-27T08:29:13.782Z,9.31
2022-07-27T08:30:14.551Z,10.22
2022-07-27T08:31:24.571Z,12.47
2022-07-27T08:32:22.547Z,10.14
2022-07-27T08:33:25.325Z,10.55
2022-07-27T08:34:28.197Z,12.68
2022-07-27T08:35:31.385Z,8.79
2022-07-27T08:36:34.155Z,11.61
2022-07-27T08:37:36.824Z,10.58
2022-07-27T08:38:39.694Z,10.13
2022-07-27T08:40:37.928Z,12.45
2022-07-27T08:40:47.697Z,12.19
2022-07-27T08:41:51.088Z,9.49
2022-07-27T08:42:54.266Z,10.74
2022-07-27T08:43:57.344Z,8.55
2022-07-27T08:45:00.249Z,11.42
2022-07-27T08:46:03.296Z,11.87
2022-07-27T08:47:06.232Z,14.72
2022-07-27T08:48:09.255Z,10.25
2022-07-27T08:49:12.367Z,9.39
2022-07-27T08:50:15.618Z,10.30
2022-07-27T08:51:18.520Z,9.05
2022-07-27T08:52:21.574Z,10.41
2022-07-27T08:53:24.241Z,9.46
2022-07-27T08:54:27.243Z,7.32
2022-07-27T08:55:30.098Z,8.82
2022-07-27T08:56:33.072Z,9.83
2022-07-27T08:57:36.149Z,7.85
2022-07-27T08:58:39.331Z,10.30
2022-07-27T08:59:42.540Z,9.84
2022-07-27T09:00:47.060Z,10.24
2022-07-27T09:01:50.704Z,14.10
2022-07-27T09:02:53.780Z,8.23
2022-07-27T09:03:56.878Z,10.31
2022-07-27T09:05:00.059Z,12.06
2022-07-27T09:06:03.153Z,14.13
2022-07-27T09:07:06.022Z,10.18
2022-07-27T09:08:08.892Z,9.95
2022-07-27T09:09:11.882Z,7.58
2022-07-27T09:10:14.946Z,11.55
2022-07-27T09:11:17.720Z,11.35
2022-07-27T09:12:20.699Z,7.60
2022-07-27T09:13:23.490Z,9.66
2022-07-27T09:14:26.241Z,11.63
2022-07-27T09:15:34.485Z,10.47
2022-07-27T09:17:14.762Z,8.86
2022-07-27T09:17:48.529Z,8.31
2022-07-27T09:18:42.864Z,10.85
2022-07-27T09:19:45.740Z,8.71
2022-07-27T09:20:48.816Z,8.02
2022-07-27T09:21:51.888Z,9.95
2022-07-27T09:22:55.180Z,11.00
2022-07-27T09:23:58.053Z,9.27
2022-07-27T09:25:03.998Z,9.20
2022-07-27T09:26:16.717Z,9.03
2022-07-27T09:27:11.179Z,7.73
2022-07-27T09:28:14.361Z,7.37
2022-07-27T09:29:17.605Z,7.92
2022-07-27T09:30:20.419Z,9.02
2022-07-27T09:31:23.136Z,8.23
2022-07-27T09:32:25.963Z,7.09
2022-07-27T09:33:28.867Z,8.97
2022-07-27T09:34:33.142Z,6.85
2022-07-27T09:35:35.921Z,8.61
2022-07-27T09:36:38.687Z,7.45
2022-07-27T09:37:41.367Z,6.50
2022-07-27T09:38:44.134Z,6.54
2022-07-27T09:39:46.910Z,5.93
2022-07-27T09:40:49.947Z,6.80
2022-07-27T09:41:52.959Z,9.77
2022-07-27T09:43:09.093Z,6.75
2022-07-27T09:45:06.498Z,8.13
2022-07-27T09:46:09.531Z,6.03
2022-07-27T09:47:12.152Z,8.84
2022-07-27T09:48:15.018Z,9.88
2022-07-27T09:49:18.054Z,6.44
2022-07-27T09:50:20.772Z,6.98
2022-07-27T09:51:58.413Z,7.18
2022-07-27T09:52:28.162Z,6.67
2022-07-27T09:53:43.446Z,5.97
2022-07-27T09:54:35.859Z,7.72
2022-07-27T09:55:38.730Z,7.72
2022-07-27T09:56:41.818Z,6.87
2022-07-27T09:57:44.779Z,8.76
2022-07-27T09:58:47.758Z,6.99
2022-07-27T09:59:50.943Z,5.39
2022-07-27T10:00:54.017Z,6.31
2022-07-27T10:01:57.075Z,5.71
2022-07-27T10:03:00.178Z,5.62
2022-07-27T10:04:03.284Z,5.92
2022-07-27T10:05:06.230Z,7.49
2022-07-27T10:06:09.212Z,7.34
2022-07-27T10:07:13.762Z,5.08
2022-07-27T10:08:16.599Z,4.24
2022-07-27T10:09:19.277Z,5.81
2022-07-27T10:10:22.177Z,5.09
2022-07-27T10:11:24.920Z,6.27
2022-07-27T10:12:27.995Z,5.15
2022-07-27T10:13:30.871Z,4.73
2022-07-27T10:14:33.752Z,4.61
2022-07-27T10:15:37.385Z,4.73
2022-07-27T10:16:40.417Z,3.63
2022-07-27T10:17:44.087Z,4.17
2022-07-27T10:18:50.755Z,3.58
2022-07-27T10:19:54.776Z,4.57
2022-07-27T10:20:58.057Z,5.01
2022-07-27T10:22:01.040Z,5.44
2022-07-27T10:23:03.910Z,3.98
2022-07-27T10:24:08.426Z,4.59
2022-07-27T10:25:14.266Z,6.27
2022-07-27T10:26:20.233Z,4.46
2022-07-27T10:27:22.884Z,3.72
2022-07-27T10:28:25.658Z,5.13
2022-07-27T10:29:28.323Z,3.76
2022-07-27T10:30:33.908Z,4.87
2022-07-27T10:31:37.086Z,2.68
2022-07-27T10:32:40.023Z,3.71
2022-07-27T10:33:45.865Z,4.02
2022-07-27T10:34:48.740Z,4.03
2022-07-27T10:35:54.324Z,3.56
2022-07-27T10:36:57.562Z,4.04
2022-07-27T10:38:00.435Z,4.52
2022-07-27T10:39:06.492Z,4.42
2022-07-27T10:40:09.458Z,4.75
2022-07-27T10:41:12.239Z,4.37
2022-07-27T10:42:17.779Z,5.40
2022-07-27T10:43:20.438Z,4.29
2022-07-27T10:44:26.183Z,3.99
2022-07-27T10:45:50.245Z,2.48
2022-07-27T10:46:36.096Z,2.89
2022-07-27T10:47:41.868Z,4.55
2022-07-27T10:48:49.035Z,3.71
2022-07-27T10:49:49.362Z,2.99
2022-07-27T10:50:52.551Z,3.69
2022-07-27T10:51:55.426Z,5.20
2022-07-27T10:53:01.263Z,3.67
2022-07-27T10:54:12.404Z,3.57
2022-07-27T10:55:08.445Z,3.57
2022-07-27T10:56:17.261Z,3.03
2022-07-27T10:57:23.010Z,3.73
2022-07-27T10:58:25.673Z,4.21
2022-07-27T10:59:39.988Z,2.71
2022-07-27T11:00:42.209Z,3.22
2022-07-27T11:01:45.623Z,3.65
2022-07-27T11:02:48.641Z,4.44
2022-07-27T11:03:51.670Z,2.08
2022-07-27T11:04:54.693Z,2.77
2022-07-27T11:06:01.310Z,2.39
2022-07-27T11:07:24.162Z,4.83
2022-07-27T11:10:27.092Z,3.04
2022-07-27T11:11:29.860Z,4.22
2022-07-27T11:12:32.635Z,4.26
2022-07-27T11:13:39.014Z,3.88
2022-07-27T11:14:39.819Z,2.91
2022-07-27T11:15:43.833Z,3.02
2022-07-27T11:16:55.917Z,3.30
2022-07-27T11:18:00.638Z,4.33
2022-07-27T11:18:58.251Z,3.70
2022-07-27T11:20:04.023Z,3.68
2022-07-27T11:21:09.671Z,3.17
2022-07-27T11:22:28.282Z,3.54
2022-07-27T11:24:20.946Z,2.79
2022-07-27T11:25:23.820Z,2.37
2022-07-27T11:26:29.358Z,4.33
2022-07-27T11:27:38.277Z,2.56
2022-07-27T11:28:40.958Z,2.64
2022-07-27T11:29:43.952Z,2.52
2022-07-27T11:30:46.775Z,3.28
2022-07-27T11:31:58.306Z,3.50
2022-07-27T11:32:53.997Z,3.49
2022-07-27T11:33:59.515Z,2.42
2022-07-27T11:35:09.065Z,2.43
2022-07-27T11:36:09.976Z,2.30
2022-07-27T11:37:15.210Z,2.21
2022-07-27T11:38:18.094Z,2.87
2022-07-27T11:39:54.309Z,2.08
2022-07-27T11:40:56.408Z,4.25
2022-07-27T11:41:55.828Z,3.21
2022-07-27T11:42:34.087Z,3.31
2022-07-27T11:43:40.443Z,3.90
2022-07-27T11:44:44.650Z,3.99
2022-07-27T11:45:51.849Z,2.68
2022-07-27T11:46:58.542Z,2.01
2022-07-27T11:47:59.520Z,3.03
2022-07-27T11:49:07.468Z,4.52
2022-07-27T11:50:07.096Z,2.71
2022-07-27T11:51:12.897Z,2.44
2022-07-27T11:52:15.726Z,2.80
2022-07-27T11:53:21.670Z,4.54
2022-07-27T11:54:24.451Z,3.74
2022-07-27T11:55:27.115Z,3.74
2022-07-27T11:56:32.649Z,2.19
2022-07-27T11:57:38.198Z,3.19
2022-07-27T11:58:41.779Z,3.46
2022-07-27T11:59:47.336Z,2.79
2022-07-27T12:00:50.194Z,1.65
2022-07-27T12:01:53.137Z,1.93
2022-07-27T12:02:59.118Z,3.49
2022-07-27T12:04:07.727Z,2.47
2022-07-27T12:05:10.554Z,2.16
2022-07-27T12:06:13.473Z,1.95
2022-07-27T12:07:16.146Z,1.95
2022-07-27T12:08:19.125Z,2.30
2022-07-27T12:09:24.961Z,3.88
2022-07-27T12:10:27.641Z,3.56
2022-07-27T12:11:34.266Z,2.82
2022-07-27T12:12:35.233Z,2.36
2022-07-27T12:13:38.103Z,2.69
2022-07-27T12:14:41.076Z,3.38
2022-07-27T12:15:46.473Z,2.95
2022-07-27T12:16:51.115Z,2.23
2022-07-27T12:17:59.843Z,2.37
2022-07-27T12:19:02.817Z,2.18
2022-07-27T12:20:05.922Z,1.92
2022-07-27T12:21:09.485Z,3.17
2022-07-27T12:22:15.227Z,3.01
2022-07-27T12:23:20.763Z,2.89
2022-07-27T12:24:23.436Z,2.42
2022-07-27T12:25:29.281Z,2.00
2022-07-27T12:26:32.156Z,2.68
2022-07-27T12:27:35.133Z,2.86
2022-07-27T12:28:40.565Z,3.95
2022-07-27T12:29:46.207Z,2.89
2022-07-27T12:30:49.287Z,2.78
2022-07-27T12:31:52.269Z,3.02
2022-07-27T12:32:55.753Z,1.90
2022-07-27T12:34:06.174Z,2.80
2022-07-27T12:35:06.005Z,2.61
2022-07-27T12:36:08.879Z,3.36
2022-07-27T12:37:14.732Z,2.38
2022-07-27T12:38:20.162Z,4.21
2022-07-27T12:39:22.828Z,4.05
2022-07-27T12:40:25.600Z,2.53
2022-07-27T12:41:31.443Z,3.57
2022-07-27T12:42:37.088Z,3.34
2022-07-27T12:43:39.751Z,2.84
2022-07-27T12:44:42.525Z,3.17
2022-07-27T12:45:45.416Z,2.87
2022-07-27T12:46:48.174Z,3.25
2022-07-27T12:47:57.092Z,1.52
2022-07-27T12:49:02.808Z,1.77
2022-07-27T12:50:05.498Z,1.77
2022-07-27T12:51:11.195Z,2.37
2022-07-27T12:52:14.121Z,2.29
2022-07-27T12:53:16.800Z,2.99
2022-07-27T12:54:19.561Z,2.67
2022-07-27T12:55:28.170Z,3.11
2022-07-27T12:56:30.943Z,3.21
2022-07-27T12:57:54.648Z,2.97
2022-07-27T12:58:41.196Z,5.26
2022-07-27T12:59:47.043Z,2.68
2022-07-27T13:01:01.887Z,2.38
2022-07-27T13:02:04.902Z,2.83
2022-07-27T13:03:07.954Z,2.28
2022-07-27T13:04:10.831Z,1.85
2022-07-27T13:05:13.599Z,3.86
2022-07-27T13:06:16.475Z,3.35
2022-07-27T13:07:19.247Z,2.95
2022-07-27T13:08:22.132Z,2.98
2022-07-27T13:09:24.893Z,3.24
2022-07-27T13:10:32.478Z,3.78
2022-07-27T13:11:35.455Z,2.75
2022-07-27T13:12:38.335Z,2.84
2022-07-27T13:13:44.171Z,3.22
2022-07-27T13:14:47.052Z,3.08
2022-07-27T13:15:50.024Z,2.91
2022-07-27T13:16:53.032Z,2.55
2022-07-27T13:17:59.053Z,2.92
2022-07-27T13:19:04.493Z,5.27
2022-07-27T13:20:07.561Z,4.36
2022-07-27T13:21:10.334Z,4.41
2022-07-27T13:22:13.327Z,2.65
2022-07-27T13:23:19.051Z,1.77
2022-07-27T13:24:21.824Z,2.59
2022-07-27T13:25:24.604Z,2.37
2022-07-27T13:26:30.137Z,2.10
2022-07-27T13:27:33.147Z,5.13
2022-07-27T13:28:38.660Z,3.95
2022-07-27T13:29:44.290Z,4.08
2022-07-27T13:30:46.965Z,3.58
2022-07-27T13:31:56.662Z,3.58
2022-07-27T13:32:54.148Z,3.84
2022-07-27T13:33:59.683Z,3.06
2022-07-27T13:35:05.230Z,3.29
2022-07-27T13:36:10.756Z,2.98
2022-07-27T13:37:13.424Z,2.91
2022-07-27T13:38:16.829Z,3.20
2022-07-27T13:39:19.589Z,2.72
2022-07-27T13:40:25.324Z,2.19
2022-07-27T13:41:27.995Z,2.28
2022-07-27T13:42:36.812Z,2.29
2022-07-27T13:43:39.645Z,3.70
2022-07-27T13:45:03.889Z,4.71
2022-07-27T13:45:47.041Z,2.73
2022-07-27T13:46:52.916Z,1.74
2022-07-27T13:47:56.522Z,2.11
2022-07-27T13:49:02.113Z,2.96
2022-07-27T13:50:05.253Z,3.24
2022-07-27T13:51:08.283Z,2.86
2022-07-27T13:52:11.382Z,2.72
2022-07-27T13:53:15.136Z,2.64
2022-07-27T13:54:21.856Z,3.53
2022-07-27T13:55:28.398Z,3.52
2022-07-27T13:56:31.378Z,2.04
2022-07-27T13:57:34.363Z,3.26
2022-07-27T13:58:37.231Z,3.51
2022-07-27T13:59:43.386Z,1.92
2022-07-27T14:00:46.867Z,1.37
2022-07-27T14:01:49.921Z,1.96
2022-07-27T14:02:52.794Z,2.67
2022-07-27T14:03:55.599Z,2.74
2022-07-27T14:04:58.780Z,2.93
2022-07-27T14:06:01.556Z,2.45